createdAt,value
2023-06-19T00:01:10.640Z,98.60
2023-06-19T00:03:37.760Z,98.30
2023-06-19T00:06:06.089Z,98.50
2023-06-19T00:08:33.171Z,98.80
2023-06-19T00:11:00.280Z,98.90
2023-06-19T00:13:27.336Z,98.90
2023-06-19T00:15:54.486Z,99.70
2023-06-19T00:18:21.510Z,99.90
2023-06-19T00:20:48.654Z,99.90
2023-06-19T00:23:18.187Z,99.90
2023-06-19T00:25:45.712Z,99.90
2023-06-19T00:28:16.026Z,99.90
2023-06-19T00:30:43.334Z,99.90
2023-06-19T00:33:10.550Z,99.90
2023-06-19T00:35:37.798Z,99.90
2023-06-19T00:38:06.989Z,99.90
2023-06-19T00:40:35.031Z,99.90
2023-06-19T00:43:03.066Z,99.90
2023-06-19T00:45:30.565Z,99.90
2023-06-19T00:47:59.211Z,99.90
2023-06-19T00:50:27.534Z,99.90
2023-06-19T00:52:55.120Z,99.90
2023-06-19T00:55:22.802Z,99.90
2023-06-19T00:57:51.771Z,99.90
2023-06-19T01:00:19.188Z,99.90
2023-06-19T01:02:48.540Z,99.90
2023-06-19T01:05:16.487Z,99.90
2023-06-19T01:08:37.517Z,99.90
2023-06-19T01:11:14.882Z,99.90
2023-06-19T01:14:19.172Z,99.90
2023-06-19T01:16:47.210Z,99.90
2023-06-19T01:19:19.775Z,99.90
2023-06-19T01:21:47.871Z,99.90
2023-06-19T01:24:15.417Z,99.90
2023-06-19T01:26:46.645Z,99.90
2023-06-19T01:29:16.906Z,99.90
2023-06-19T01:32:11.479Z,99.90
2023-06-19T01:34:41.182Z,99.90
2023-06-19T01:37:10.473Z,99.90
2023-06-19T01:39:38.478Z,99.90
2023-06-19T01:42:07.172Z,99.90
2023-06-19T01:44:34.689Z,99.90
2023-06-19T01:47:09.851Z,99.90
2023-06-19T01:49:37.310Z,99.90
2023-06-19T01:52:05.066Z,99.90
2023-06-19T01:54:32.158Z,99.90
2023-06-19T01:57:00.039Z,99.90
2023-06-19T01:59:27.142Z,99.90
2023-06-19T02:01:54.800Z,99.90
2023-06-19T02:04:22.810Z,99.90
2023-06-19T02:06:49.894Z,99.90
2023-06-19T02:09:17.328Z,99.90
2023-06-19T02:11:44.366Z,99.90
2023-06-19T02:14:12.535Z,99.90
2023-06-19T02:16:39.682Z,99.90
2023-06-19T02:19:09.389Z,99.90
2023-06-19T02:21:40.210Z,99.90
2023-06-19T02:24:07.607Z,99.90
2023-06-19T02:26:34.881Z,99.90
2023-06-19T02:29:01.959Z,99.90
2023-06-19T02:31:29.041Z,99.90
2023-06-19T02:33:56.197Z,99.90
2023-06-19T02:36:23.251Z,99.90
2023-06-19T02:38:50.618Z,99.90
2023-06-19T02:41:18.167Z,99.90
2023-06-19T02:43:48.015Z,99.90
2023-06-19T02:46:15.354Z,99.90
2023-06-19T02:48:42.443Z,99.90
2023-06-19T02:51:09.582Z,99.90
2023-06-19T02:53:36.714Z,99.90
2023-06-19T02:56:04.172Z,99.90
2023-06-19T02:58:32.208Z,99.90
2023-06-19T03:00:59.259Z,99.90
2023-06-19T03:03:26.581Z,99.90
2023-06-19T03:05:53.854Z,99.90
2023-06-19T03:08:21.497Z,99.90
2023-06-19T03:10:48.534Z,99.90
2023-06-19T03:13:15.649Z,99.90
2023-06-19T03:15:42.904Z,99.90
2023-06-19T03:18:11.882Z,99.90
2023-06-19T03:20:40.262Z,99.90
2023-06-19T03:23:07.421Z,99.90
2023-06-19T03:25:36.216Z,99.90
2023-06-19T03:28:04.712Z,99.90
2023-06-19T03:30:32.303Z,99.90
2023-06-19T03:32:59.551Z,99.90
2023-06-19T03:35:42.142Z,99.90
2023-06-19T03:38:15.709Z,99.90
2023-06-19T03:40:44.195Z,99.90
2023-06-19T03:43:13.457Z,99.90
2023-06-19T03:45:40.674Z,99.90
2023-06-19T03:48:07.821Z,99.90
2023-06-19T03:50:35.240Z,99.90
2023-06-19T03:53:02.565Z,99.90
2023-06-19T03:55:29.735Z,99.90
2023-06-19T03:57:56.871Z,99.90
2023-06-19T04:00:24.294Z,99.90
2023-06-19T04:02:52.679Z,99.90
2023-06-19T04:05:20.903Z,99.90
2023-06-19T04:07:48.180Z,99.90
2023-06-19T04:10:16.042Z,99.90
2023-06-19T04:12:43.159Z,99.90
2023-06-19T04:15:11.146Z,99.90
2023-06-19T04:17:38.448Z,99.90
2023-06-19T04:20:12.142Z,99.90
2023-06-19T04:22:42.997Z,99.90
2023-06-19T04:25:14.043Z,99.90
2023-06-19T04:27:41.339Z,99.90
2023-06-19T04:30:09.479Z,99.90
2023-06-19T04:32:36.780Z,99.90
2023-06-19T04:35:04.425Z,99.90
2023-06-19T04:37:31.527Z,99.90
2023-06-19T04:39:58.816Z,99.90
2023-06-19T04:42:27.610Z,99.90
2023-06-19T04:44:56.394Z,99.90
2023-06-19T04:47:30.508Z,99.90
2023-06-19T04:50:04.021Z,99.90
2023-06-19T04:52:33.576Z,99.90
2023-06-19T04:55:00.663Z,99.90
2023-06-19T04:57:27.763Z,99.90
2023-06-19T04:59:54.821Z,99.90
2023-06-19T05:02:21.920Z,99.90
2023-06-19T05:04:49.176Z,99.90
2023-06-19T05:07:19.127Z,99.90
2023-06-19T05:09:46.644Z,99.90
2023-06-19T05:12:13.809Z,99.90
2023-06-19T05:14:40.887Z,99.90
2023-06-19T05:17:08.000Z,99.90
2023-06-19T05:19:35.239Z,99.90
2023-06-19T05:22:02.311Z,99.90
2023-06-19T05:24:29.411Z,99.90
2023-06-19T05:26:56.489Z,99.90
2023-06-19T05:29:23.531Z,99.90
2023-06-19T05:31:50.643Z,99.90
2023-06-19T05:34:18.260Z,99.90
2023-06-19T05:36:48.236Z,99.90
2023-06-19T05:39:16.013Z,99.90
2023-06-19T05:41:43.206Z,99.90
2023-06-19T05:44:11.009Z,99.90
2023-06-19T05:46:38.059Z,99.90
2023-06-19T05:49:05.130Z,99.90
2023-06-19T05:51:32.130Z,99.90
2023-06-19T05:54:04.557Z,99.90
2023-06-19T05:56:34.370Z,99.90
2023-06-19T05:59:02.681Z,99.90
2023-06-19T06:01:33.167Z,99.90
2023-06-19T06:04:02.731Z,99.90
2023-06-19T06:06:29.977Z,99.90
2023-06-19T06:08:57.098Z,99.90
2023-06-19T06:11:24.450Z,99.90
2023-06-19T06:13:51.830Z,99.90
2023-06-19T06:16:18.960Z,99.90
2023-06-19T06:18:46.843Z,99.90
2023-06-19T06:21:14.280Z,99.90
2023-06-19T06:23:46.032Z,99.90
2023-06-19T06:26:13.669Z,99.90
2023-06-19T06:28:40.882Z,99.90
2023-06-19T06:31:08.278Z,99.90
2023-06-19T06:33:35.445Z,99.90
2023-06-19T06:36:02.804Z,99.90
2023-06-19T06:38:29.818Z,99.90
2023-06-19T06:40:57.199Z,99.90
2023-06-19T06:43:24.313Z,99.90
2023-06-19T06:45:51.497Z,99.90
2023-06-19T06:48:18.567Z,99.90
2023-06-19T06:50:45.651Z,99.90
2023-06-19T06:53:12.772Z,99.90
2023-06-19T06:55:39.888Z,99.90
2023-06-19T06:58:06.947Z,99.90
2023-06-19T07:00:34.015Z,99.90
2023-06-19T07:03:01.237Z,99.90
2023-06-19T07:05:30.158Z,99.90
2023-06-19T07:07:57.181Z,99.90
2023-06-19T07:10:25.217Z,99.90
2023-06-19T07:12:52.613Z,99.90
2023-06-19T07:15:20.166Z,99.90
2023-06-19T07:17:47.617Z,99.90
2023-06-19T07:20:15.269Z,99.90
2023-06-19T07:22:43.747Z,99.90
2023-06-19T07:25:12.575Z,99.90
2023-06-19T07:27:41.935Z,99.90
2023-06-19T07:30:10.032Z,99.90
2023-06-19T07:32:37.217Z,99.90
2023-06-19T07:35:05.576Z,99.90
2023-06-19T07:37:35.141Z,99.90
2023-06-19T07:40:03.142Z,99.90
2023-06-19T07:42:30.218Z,99.90
2023-06-19T07:44:57.130Z,99.90
2023-06-19T07:47:24.178Z,99.90
2023-06-19T07:49:51.267Z,99.90
2023-06-19T07:52:18.281Z,99.90
2023-06-19T07:54:58.730Z,99.90
2023-06-19T07:57:26.623Z,99.90
2023-06-19T07:59:55.747Z,99.90
2023-06-19T08:02:23.078Z,99.90
2023-06-19T08:04:50.321Z,99.90
2023-06-19T08:07:17.979Z,99.90
2023-06-19T08:09:45.070Z,99.90
2023-06-19T08:12:12.267Z,99.90
2023-06-19T08:14:39.740Z,99.90
2023-06-19T08:17:07.144Z,99.90
2023-06-19T08:19:34.673Z,99.90
2023-06-19T08:22:01.734Z,99.90
2023-06-19T08:24:28.851Z,99.90
2023-06-19T08:26:56.012Z,99.90
2023-06-19T08:29:24.567Z,99.90
2023-06-19T08:31:51.728Z,99.90
2023-06-19T08:34:18.759Z,99.90
2023-06-19T08:36:45.875Z,99.90
2023-06-19T08:39:12.940Z,99.90
2023-06-19T08:41:40.319Z,99.90
2023-06-19T08:44:07.476Z,99.90
2023-06-19T08:46:35.702Z,99.90
2023-06-19T08:49:03.204Z,99.90
2023-06-19T08:51:33.699Z,99.90
2023-06-19T08:54:05.883Z,99.90
2023-06-19T08:56:36.519Z,99.90
2023-06-19T08:59:14.105Z,99.90
2023-06-19T09:01:48.145Z,99.90
2023-06-19T09:04:15.444Z,99.90
2023-06-19T09:07:03.910Z,99.90
2023-06-19T09:09:51.709Z,99.90
2023-06-19T09:12:19.413Z,99.90
2023-06-19T09:14:56.088Z,99.90
2023-06-19T09:17:23.418Z,99.90
2023-06-19T09:19:57.142Z,98.90
2023-06-19T09:22:26.188Z,96.60
2023-06-19T09:24:53.382Z,97.10
2023-06-19T09:27:21.702Z,99.90
2023-06-19T09:29:51.321Z,98.60
2023-06-19T09:32:24.208Z,99.50
2023-06-19T09:34:59.708Z,96.60
2023-06-19T09:37:29.038Z,93.40
2023-06-19T09:40:01.298Z,93.90
2023-06-19T09:42:38.267Z,91.70
2023-06-19T09:45:10.603Z,91.00
2023-06-19T09:47:48.759Z,83.90
2023-06-19T09:50:18.634Z,87.80
2023-06-19T09:52:52.560Z,90.20
2023-06-19T09:55:20.859Z,87.40
2023-06-19T09:57:49.689Z,84.40
2023-06-19T10:00:22.989Z,80.00
2023-06-19T10:02:51.153Z,78.60
2023-06-19T10:05:19.811Z,87.50
2023-06-19T10:07:48.111Z,89.00
2023-06-19T10:10:26.960Z,87.50
2023-06-19T10:12:57.223Z,81.80
2023-06-19T10:15:26.945Z,81.40
2023-06-19T10:18:08.458Z,75.50
2023-06-19T10:20:46.540Z,72.40
2023-06-19T10:23:21.109Z,73.30
2023-06-19T10:25:59.998Z,73.10
2023-06-19T10:28:31.218Z,77.40
2023-06-19T10:31:04.321Z,68.90
2023-06-19T10:33:33.978Z,62.50
2023-06-19T10:36:03.300Z,62.50
2023-06-19T10:38:30.648Z,66.60
2023-06-19T10:40:57.720Z,66.30
2023-06-19T10:43:29.151Z,67.00
2023-06-19T10:45:56.401Z,62.90
2023-06-19T10:48:26.872Z,61.60
2023-06-19T10:50:54.073Z,56.50
2023-06-19T10:53:39.418Z,55.70
2023-06-19T10:56:07.258Z,54.20
2023-06-19T10:58:34.816Z,52.90
2023-06-19T11:01:01.906Z,53.00
2023-06-19T11:03:29.762Z,54.70
2023-06-19T11:05:57.119Z,55.30
2023-06-19T11:08:24.412Z,51.90
2023-06-19T11:10:52.131Z,49.00
2023-06-19T11:13:20.794Z,48.20
2023-06-19T11:15:50.684Z,48.20
2023-06-19T11:18:19.272Z,44.70
2023-06-19T11:20:55.341Z,44.80
2023-06-19T11:23:30.372Z,43.70
2023-06-19T11:26:04.910Z,40.60
2023-06-19T11:28:32.066Z,41.10
2023-06-19T11:31:04.772Z,43.80
2023-06-19T11:33:31.992Z,47.10
2023-06-19T11:36:02.050Z,45.00
2023-06-19T11:38:29.843Z,40.80
2023-06-19T11:40:58.039Z,41.00
2023-06-19T11:43:30.053Z,41.40
2023-06-19T11:46:10.006Z,40.00
2023-06-19T11:48:40.179Z,41.30
2023-06-19T11:51:07.939Z,37.50
2023-06-19T11:53:36.066Z,39.10
2023-06-19T11:56:03.252Z,39.80
2023-06-19T11:58:30.298Z,38.20
2023-06-19T12:00:57.616Z,40.70
2023-06-19T12:03:24.901Z,41.20
2023-06-19T12:05:52.195Z,39.50
2023-06-19T12:08:19.284Z,36.80
2023-06-19T12:10:46.363Z,34.40
2023-06-19T12:13:13.436Z,34.50
2023-06-19T12:15:49.243Z,38.70
2023-06-19T12:18:16.363Z,36.50
2023-06-19T12:20:43.441Z,37.30
2023-06-19T12:23:10.682Z,39.10
2023-06-19T12:25:37.766Z,39.70
2023-06-19T12:28:09.020Z,34.10
2023-06-19T12:30:37.278Z,32.90
2023-06-19T12:33:05.044Z,31.00
2023-06-19T12:35:32.269Z,30.20
2023-06-19T12:37:59.420Z,30.60
2023-06-19T12:40:26.900Z,29.20
2023-06-19T12:42:54.262Z,29.80
2023-06-19T12:45:21.382Z,30.20
2023-06-19T12:47:48.472Z,30.00
2023-06-19T12:50:15.626Z,30.70
2023-06-19T12:52:42.655Z,31.10
2023-06-19T12:55:10.154Z,31.80
2023-06-19T12:57:37.555Z,29.90
2023-06-19T13:00:09.356Z,31.80
2023-06-19T13:02:36.593Z,29.30
2023-06-19T13:05:03.853Z,34.00
2023-06-19T13:07:30.972Z,36.90
2023-06-19T13:09:58.043Z,33.30
2023-06-19T13:12:25.116Z,34.10
2023-06-19T13:14:52.874Z,36.90
2023-06-19T13:17:20.463Z,35.10
2023-06-19T13:19:47.533Z,34.60
2023-06-19T13:22:14.681Z,34.60
2023-06-19T13:24:41.814Z,33.50
2023-06-19T13:27:08.957Z,34.90
2023-06-19T13:29:36.049Z,31.90
2023-06-19T13:32:03.300Z,34.30
2023-06-19T13:34:30.498Z,32.40
2023-06-19T13:36:57.852Z,31.50
2023-06-19T13:39:25.008Z,32.30
2023-06-19T13:41:52.873Z,34.10
2023-06-19T13:44:20.243Z,36.40
2023-06-19T13:46:48.190Z,33.80
2023-06-19T13:49:15.309Z,32.50
2023-06-19T13:51:43.767Z,38.10
2023-06-19T13:54:10.867Z,39.20
2023-06-19T13:56:39.195Z,39.80
2023-06-19T13:59:06.769Z,35.20
2023-06-19T14:01:34.192Z,37.10
2023-06-19T14:04:01.407Z,33.80
2023-06-19T14:06:28.673Z,32.60
2023-06-19T14:08:55.971Z,34.30
2023-06-19T14:11:23.253Z,33.20
2023-06-19T14:13:50.925Z,30.40
2023-06-19T14:16:18.462Z,28.90
2023-06-19T14:18:45.674Z,29.30
2023-06-19T14:21:12.719Z,28.80
2023-06-19T14:23:44.273Z,26.90
2023-06-19T14:26:12.326Z,27.00
2023-06-19T14:28:40.441Z,28.10
2023-06-19T14:31:07.814Z,27.80
2023-06-19T14:33:36.843Z,28.10
2023-06-19T14:36:04.485Z,28.70
2023-06-19T14:38:34.718Z,28.70
2023-06-19T14:41:02.901Z,30.40
2023-06-19T14:43:33.484Z,32.40
2023-06-19T14:46:01.115Z,31.10
2023-06-19T14:48:31.405Z,28.50
2023-06-19T14:50:58.646Z,29.60
2023-06-19T14:53:25.726Z,33.00
2023-06-19T14:55:52.985Z,30.20
2023-06-19T14:58:20.058Z,30.50
2023-06-19T15:00:49.337Z,30.50
2023-06-19T15:03:16.476Z,30.10
2023-06-19T15:05:43.618Z,27.50
2023-06-19T15:08:12.002Z,28.70
2023-06-19T15:10:39.308Z,28.00
2023-06-19T15:13:06.395Z,30.40
2023-06-19T15:15:33.561Z,26.40
2023-06-19T15:18:00.785Z,26.90
2023-06-19T15:20:27.953Z,26.60
2023-06-19T15:22:55.068Z,27.70
2023-06-19T15:25:22.122Z,29.60
2023-06-19T15:27:49.189Z,28.40
2023-06-19T15:30:16.302Z,28.50
2023-06-19T15:32:43.619Z,27.60
2023-06-19T15:35:10.880Z,27.00
2023-06-19T15:37:37.979Z,27.50
2023-06-19T15:40:05.943Z,26.00
2023-06-19T15:42:33.020Z,26.00
2023-06-19T15:45:00.200Z,25.60
2023-06-19T15:47:27.262Z,25.20
2023-06-19T15:49:54.303Z,26.40
2023-06-19T15:52:22.728Z,25.90
2023-06-19T15:54:49.811Z,25.40
2023-06-19T15:57:17.230Z,28.60
2023-06-19T15:59:47.962Z,27.60
2023-06-19T16:02:15.062Z,29.30
2023-06-19T16:04:42.095Z,29.20
2023-06-19T16:07:09.096Z,28.90
2023-06-19T16:09:50.369Z,30.20
2023-06-19T16:12:22.140Z,29.50
2023-06-19T16:14:49.159Z,30.10
2023-06-19T16:17:16.217Z,30.40
2023-06-19T16:19:43.338Z,29.70
2023-06-19T16:22:12.139Z,29.00
2023-06-19T16:24:41.854Z,29.90
2023-06-19T16:27:09.218Z,30.00
2023-06-19T16:29:36.414Z,30.00
2023-06-19T16:32:09.476Z,30.20
2023-06-19T16:34:37.899Z,30.00
2023-06-19T16:37:05.538Z,30.10
2023-06-19T16:39:32.965Z,31.20
2023-06-19T16:42:00.044Z,30.80
2023-06-19T16:44:27.129Z,31.00
2023-06-19T16:46:54.222Z,32.20
2023-06-19T16:49:23.624Z,33.80
2023-06-19T16:51:50.981Z,34.90
2023-06-19T16:54:18.330Z,34.80
2023-06-19T16:56:45.368Z,35.10
2023-06-19T16:59:12.594Z,34.70
2023-06-19T17:01:39.805Z,35.00
2023-06-19T17:04:08.156Z,34.30
2023-06-19T17:06:36.122Z,37.80
2023-06-19T17:09:03.563Z,38.10
2023-06-19T17:11:31.058Z,39.60
2023-06-19T17:13:58.135Z,40.60
2023-06-19T17:16:25.270Z,40.80
2023-06-19T17:18:52.410Z,40.60
2023-06-19T17:21:19.660Z,41.30
2023-06-19T17:23:47.819Z,41.20
2023-06-19T17:26:14.945Z,40.30
2023-06-19T17:28:42.024Z,40.30
2023-06-19T17:31:09.135Z,39.70
2023-06-19T17:33:36.370Z,40.50
2023-06-19T17:36:04.087Z,40.50
2023-06-19T17:38:31.176Z,40.60
2023-06-19T17:40:58.312Z,41.10
2023-06-19T17:43:25.473Z,41.20
2023-06-19T17:45:52.673Z,43.60
2023-06-19T17:48:19.794Z,43.80
2023-06-19T17:50:46.821Z,44.20
2023-06-19T17:53:14.068Z,46.00
2023-06-19T17:55:43.565Z,44.60
2023-06-19T17:58:10.859Z,45.50
2023-06-19T18:00:37.940Z,46.60
2023-06-19T18:03:05.701Z,45.80
2023-06-19T18:05:32.851Z,46.50
2023-06-19T18:07:59.949Z,47.10
2023-06-19T18:10:27.338Z,47.70
2023-06-19T18:12:54.550Z,46.40
2023-06-19T18:15:21.648Z,44.70
2023-06-19T18:17:48.853Z,44.00
2023-06-19T18:20:16.113Z,44.60
2023-06-19T18:22:44.417Z,45.30
2023-06-19T18:25:11.671Z,46.20
2023-06-19T18:27:40.367Z,47.30
2023-06-19T18:30:08.911Z,47.70
2023-06-19T18:32:36.155Z,48.70
2023-06-19T18:35:03.638Z,49.40
2023-06-19T18:37:31.917Z,49.90
2023-06-19T18:39:58.988Z,49.90
2023-06-19T18:42:28.006Z,51.10
2023-06-19T18:44:55.119Z,52.80
2023-06-19T18:47:22.208Z,54.30
2023-06-19T18:49:50.832Z,55.30
2023-06-19T18:52:18.129Z,56.20
2023-06-19T18:54:45.264Z,56.50
2023-06-19T18:57:12.368Z,56.70
2023-06-19T18:59:39.409Z,56.20
2023-06-19T19:02:08.389Z,56.50
2023-06-19T19:04:38.467Z,57.10
2023-06-19T19:07:06.321Z,57.00
2023-06-19T19:09:33.380Z,57.30
2023-06-19T19:12:00.451Z,57.50
2023-06-19T19:14:27.541Z,58.00
2023-06-19T19:16:54.611Z,58.80
2023-06-19T19:19:21.990Z,60.30
2023-06-19T19:21:51.630Z,63.10
2023-06-19T19:24:23.027Z,64.90
2023-06-19T19:26:50.989Z,66.90
2023-06-19T19:29:18.042Z,66.30
2023-06-19T19:31:45.138Z,69.10
2023-06-19T19:34:19.668Z,69.70
2023-06-19T19:36:47.870Z,70.60
2023-06-19T19:39:15.042Z,70.20
2023-06-19T19:41:42.570Z,70.50
2023-06-19T19:44:09.658Z,70.60
2023-06-19T19:46:36.790Z,71.70
2023-06-19T19:49:03.891Z,76.40
2023-06-19T19:51:30.983Z,78.40
2023-06-19T19:53:58.032Z,77.80
2023-06-19T19:56:25.188Z,81.90
2023-06-19T19:58:52.414Z,83.00
2023-06-19T20:01:19.695Z,86.50
2023-06-19T20:03:47.109Z,87.70
2023-06-19T20:06:14.266Z,89.00
2023-06-19T20:08:44.825Z,88.60
2023-06-19T20:11:15.343Z,86.40
2023-06-19T20:13:42.463Z,87.10
2023-06-19T20:16:10.530Z,86.80
2023-06-19T20:18:38.730Z,86.60
2023-06-19T20:21:05.904Z,85.00
2023-06-19T20:23:33.009Z,84.00
2023-06-19T20:26:00.160Z,83.70
2023-06-19T20:28:27.269Z,85.50
2023-06-19T20:30:55.461Z,85.00
2023-06-19T20:33:23.085Z,87.50
2023-06-19T20:35:51.118Z,90.90
2023-06-19T20:38:21.272Z,90.60
2023-06-19T20:40:49.870Z,90.70
2023-06-19T20:43:17.011Z,90.60
2023-06-19T20:45:44.097Z,90.70
2023-06-19T20:48:11.504Z,90.20
2023-06-19T20:50:38.852Z,90.40
2023-06-19T20:53:06.048Z,90.20
2023-06-19T20:55:33.257Z,91.20
2023-06-19T20:58:05.574Z,91.60
2023-06-19T21:00:33.007Z,94.00
2023-06-19T21:03:00.712Z,94.30
2023-06-19T21:05:28.201Z,93.00
2023-06-19T21:07:55.284Z,92.30
2023-06-19T21:10:23.783Z,91.50
2023-06-19T21:12:51.376Z,91.70
2023-06-19T21:15:18.620Z,90.70
2023-06-19T21:17:45.797Z,91.30
2023-06-19T21:20:12.985Z,91.60
2023-06-19T21:22:40.433Z,92.50
2023-06-19T21:25:08.289Z,93.10
2023-06-19T21:27:35.746Z,93.70
2023-06-19T21:30:04.567Z,94.00
2023-06-19T21:32:31.692Z,94.10
2023-06-19T21:34:58.773Z,94.30
2023-06-19T21:37:25.849Z,95.00
2023-06-19T21:39:52.969Z,94.40
2023-06-19T21:42:20.053Z,93.70
2023-06-19T21:44:47.269Z,94.20
2023-06-19T21:47:14.367Z,94.50
2023-06-19T21:49:41.408Z,94.90
2023-06-19T21:52:08.699Z,96.90
2023-06-19T21:54:35.872Z,97.70
2023-06-19T21:57:02.991Z,96.90
2023-06-19T21:59:30.155Z,97.00
2023-06-19T22:01:57.234Z,96.50
2023-06-19T22:04:24.380Z,97.50
2023-06-19T22:06:51.443Z,98.10
2023-06-19T22:09:18.560Z,99.90
2023-06-19T22:11:45.628Z,99.90
2023-06-19T22:14:12.756Z,99.90
2023-06-19T22:16:39.926Z,99.90
2023-06-19T22:19:07.208Z,99.90
2023-06-19T22:21:34.244Z,99.90
2023-06-19T22:24:01.407Z,99.90
2023-06-19T22:26:28.775Z,99.90
2023-06-19T22:28:56.031Z,99.90
2023-06-19T22:31:23.641Z,99.90
2023-06-19T22:33:50.731Z,99.90
2023-06-19T22:36:17.812Z,99.90
2023-06-19T22:38:44.874Z,99.90
2023-06-19T22:41:11.982Z,99.90
2023-06-19T22:43:39.108Z,99.90
2023-06-19T22:46:06.227Z,99.90
2023-06-19T22:48:33.412Z,99.90
2023-06-19T22:51:01.165Z,99.90
2023-06-19T22:53:31.068Z,99.90
2023-06-19T22:55:58.536Z,99.90
2023-06-19T22:58:25.693Z,99.90
2023-06-19T23:00:52.877Z,99.90
2023-06-19T23:03:22.589Z,99.90
2023-06-19T23:05:49.793Z,99.90
2023-06-19T23:08:16.917Z,99.90
2023-06-19T23:10:43.919Z,99.90
2023-06-19T23:13:11.086Z,99.90
2023-06-19T23:15:38.147Z,99.90
2023-06-19T23:18:07.735Z,99.90
2023-06-19T23:20:34.890Z,99.90
2023-06-19T23:23:06.034Z,99.90
2023-06-19T23:25:34.650Z,99.90
2023-06-19T23:28:01.814Z,99.90
2023-06-19T23:30:29.045Z,99.90
2023-06-19T23:32:56.183Z,99.90
2023-06-19T23:35:24.177Z,99.90
2023-06-19T23:37:51.512Z,99.90
2023-06-19T23:40:19.466Z,99.90
2023-06-19T23:42:46.511Z,99.90
2023-06-19T23:45:13.560Z,99.90
2023-06-19T23:47:40.770Z,99.90
2023-06-19T23:50:09.098Z,99.90
2023-06-19T23:52:43.783Z,99.90
2023-06-19T23:55:11.672Z,99.90
2023-06-19T23:57:38.874Z,99.90
